sensor_id;sensor_type;location;lat;lon;timestamp;pressure;altitude;pressure_sealevel;temperature;humidity
27712;BME280;2377;51.734;8.950;2023-04-08T00:01:00;98333.31;;;5.87;63.60
27712;BME280;2377;51.734;8.950;2023-04-08T00:03:28;98334.09;;;5.87;63.48
27712;BME280;2377;51.734;8.950;2023-04-08T00:05:56;98329.50;;;5.83;63.77
27712;BME280;2377;51.734;8.950;2023-04-08T00:08:25;98327.16;;;5.81;64.06
27712;BME280;2377;51.734;8.950;2023-04-08T00:10:52;98324.94;;;5.78;64.30
27712;BME280;2377;51.734;8.950;2023-04-08T00:13:19;98330.66;;;5.80;64.73
27712;BME280;2377;51.734;8.950;2023-04-08T00:15:46;98322.41;;;5.78;64.61
27712;BME280;2377;51.734;8.950;2023-04-08T00:18:15;98329.50;;;5.83;64.87
27712;BME280;2377;51.734;8.950;2023-04-08T00:20:43;98327.78;;;5.83;65.00
27712;BME280;2377;51.734;8.950;2023-04-08T00:23:11;98334.91;;;5.88;65.27
27712;BME280;2377;51.734;8.950;2023-04-08T00:25:39;98332.00;;;5.91;65.41
27712;BME280;2377;51.734;8.950;2023-04-08T00:28:06;98333.56;;;5.92;65.48
27712;BME280;2377;51.734;8.950;2023-04-08T00:30:34;98326.63;;;5.94;65.54
27712;BME280;2377;51.734;8.950;2023-04-08T00:33:01;98329.16;;;5.94;65.49
27712;BME280;2377;51.734;8.950;2023-04-08T00:35:28;98324.72;;;5.96;65.59
27712;BME280;2377;51.734;8.950;2023-04-08T00:37:55;98320.59;;;5.95;65.90
27712;BME280;2377;51.734;8.950;2023-04-08T00:40:23;98324.22;;;5.92;66.09
27712;BME280;2377;51.734;8.950;2023-04-08T00:42:51;98324.41;;;5.91;66.01
27712;BME280;2377;51.734;8.950;2023-04-08T00:45:18;98314.88;;;5.93;66.48
27712;BME280;2377;51.734;8.950;2023-04-08T00:47:45;98331.69;;;5.94;65.80
27712;BME280;2377;51.734;8.950;2023-04-08T00:50:17;98327.56;;;5.93;66.24
27712;BME280;2377;51.734;8.950;2023-04-08T00:52:45;98331.38;;;5.89;66.49
27712;BME280;2377;51.734;8.950;2023-04-08T00:55:12;98330.91;;;5.85;66.78
27712;BME280;2377;51.734;8.950;2023-04-08T00:57:41;98332.06;;;5.83;67.10
27712;BME280;2377;51.734;8.950;2023-04-08T01:00:10;98341.25;;;5.84;67.51
27712;BME280;2377;51.734;8.950;2023-04-08T01:02:46;98333.19;;;5.80;67.58
27712;BME280;2377;51.734;8.950;2023-04-08T01:05:26;98339.38;;;5.78;67.47
27712;BME280;2377;51.734;8.950;2023-04-08T01:07:55;98340.34;;;5.77;67.68
27712;BME280;2377;51.734;8.950;2023-04-08T01:10:29;98334.94;;;5.80;67.82
27712;BME280;2377;51.734;8.950;2023-04-08T01:13:07;98329.50;;;5.83;67.43
27712;BME280;2377;51.734;8.950;2023-04-08T01:15:37;98329.19;;;5.86;67.58
27712;BME280;2377;51.734;8.950;2023-04-08T01:18:12;98334.56;;;5.91;67.66
27712;BME280;2377;51.734;8.950;2023-04-08T01:20:41;98331.69;;;5.94;67.56
27712;BME280;2377;51.734;8.950;2023-04-08T01:23:19;98321.41;;;5.96;67.42
27712;BME280;2377;51.734;8.950;2023-04-08T01:25:51;98329.44;;;5.99;67.29
27712;BME280;2377;51.734;8.950;2023-04-08T01:28:22;98322.09;;;6.04;68.08
27712;BME280;2377;51.734;8.950;2023-04-08T01:30:51;98323.34;;;6.08;68.01
27712;BME280;2377;51.734;8.950;2023-04-08T01:33:22;98323.03;;;6.11;68.36
27712;BME280;2377;51.734;8.950;2023-04-08T01:35:51;98328.69;;;6.13;68.43
27712;BME280;2377;51.734;8.950;2023-04-08T01:38:22;98327.75;;;6.14;68.27
27712;BME280;2377;51.734;8.950;2023-04-08T01:40:53;98330.09;;;6.16;68.13
27712;BME280;2377;51.734;8.950;2023-04-08T01:43:22;98329.66;;;6.12;68.56
27712;BME280;2377;51.734;8.950;2023-04-08T01:45:51;98329.66;;;6.12;68.84
27712;BME280;2377;51.734;8.950;2023-04-08T01:48:24;98326.50;;;6.10;69.46
27712;BME280;2377;51.734;8.950;2023-04-08T01:50:51;98332.38;;;6.11;69.84
27712;BME280;2377;51.734;8.950;2023-04-08T01:53:19;98327.28;;;6.11;69.99
27712;BME280;2377;51.734;8.950;2023-04-08T01:55:54;98332.38;;;6.11;70.34
27712;BME280;2377;51.734;8.950;2023-04-08T01:58:28;98331.22;;;6.13;70.26
27712;BME280;2377;51.734;8.950;2023-04-08T02:00:59;98325.84;;;6.17;70.20
27712;BME280;2377;51.734;8.950;2023-04-08T02:03:28;98322.31;;;6.18;70.03
27712;BME280;2377;51.734;8.950;2023-04-08T02:05:56;98322.16;;;6.19;70.33
27712;BME280;2377;51.734;8.950;2023-04-08T02:08:23;98331.19;;;6.22;70.27
27712;BME280;2377;51.734;8.950;2023-04-08T02:10:50;98334.97;;;6.26;70.60
27712;BME280;2377;51.734;8.950;2023-04-08T02:13:19;98327.94;;;6.28;70.40
27712;BME280;2377;51.734;8.950;2023-04-08T02:15:59;98329.53;;;6.29;71.02
27712;BME280;2377;51.734;8.950;2023-04-08T02:18:31;98320.31;;;6.28;71.25
27712;BME280;2377;51.734;8.950;2023-04-08T02:21:05;98319.53;;;6.27;71.36
27712;BME280;2377;51.734;8.950;2023-04-08T02:23:37;98323.06;;;6.26;71.47
27712;BME280;2377;51.734;8.950;2023-04-08T02:26:12;98327.00;;;6.29;71.83
27712;BME280;2377;51.734;8.950;2023-04-08T02:28:41;98324.72;;;6.34;71.71
27712;BME280;2377;51.734;8.950;2023-04-08T02:31:11;98333.75;;;6.37;71.30
27712;BME280;2377;51.734;8.950;2023-04-08T02:33:40;98338.66;;;6.38;71.13
27712;BME280;2377;51.734;8.950;2023-04-08T02:36:10;98329.47;;;6.37;70.92
27712;BME280;2377;51.734;8.950;2023-04-08T02:38:38;98334.88;;;6.34;71.42
27712;BME280;2377;51.734;8.950;2023-04-08T02:41:05;98334.44;;;6.30;71.06
27712;BME280;2377;51.734;8.950;2023-04-08T02:43:32;98334.63;;;6.29;70.99
27712;BME280;2377;51.734;8.950;2023-04-08T02:46:01;98336.03;;;6.31;71.43
27712;BME280;2377;51.734;8.950;2023-04-08T02:48:28;98334.25;;;6.32;71.78
27712;BME280;2377;51.734;8.950;2023-04-08T02:50:56;98336.03;;;6.31;72.02
27712;BME280;2377;51.734;8.950;2023-04-08T02:53:23;98335.41;;;6.29;71.26
27712;BME280;2377;51.734;8.950;2023-04-08T02:55:51;98343.19;;;6.28;71.26
27712;BME280;2377;51.734;8.950;2023-04-08T02:58:18;98343.00;;;6.29;71.16
27712;BME280;2377;51.734;8.950;2023-04-08T03:00:45;98342.38;;;6.27;71.15
27712;BME280;2377;51.734;8.950;2023-04-08T03:03:14;98347.66;;;6.26;71.04
27712;BME280;2377;51.734;8.950;2023-04-08T03:05:41;98346.25;;;6.23;71.04
27712;BME280;2377;51.734;8.950;2023-04-08T03:08:08;98345.44;;;6.23;72.15
27712;BME280;2377;51.734;8.950;2023-04-08T03:10:35;98347.34;;;6.21;73.18
27712;BME280;2377;51.734;8.950;2023-04-08T03:13:02;98351.66;;;6.20;72.94
27712;BME280;2377;51.734;8.950;2023-04-08T03:15:29;98348.16;;;6.21;73.51
27712;BME280;2377;51.734;8.950;2023-04-08T03:17:56;98354.97;;;6.21;73.78
27712;BME280;2377;51.734;8.950;2023-04-08T03:20:25;98356.56;;;6.22;74.20
27712;BME280;2377;51.734;8.950;2023-04-08T03:22:52;98347.72;;;6.18;75.11
27712;BME280;2377;51.734;8.950;2023-04-08T03:25:19;98351.22;;;6.17;74.88
27712;BME280;2377;51.734;8.950;2023-04-08T03:27:46;98358.81;;;6.17;74.93
27712;BME280;2377;51.734;8.950;2023-04-08T03:30:13;98357.22;;;6.16;75.38
27712;BME280;2377;51.734;8.950;2023-04-08T03:32:40;98356.28;;;6.17;75.51
27712;BME280;2377;51.734;8.950;2023-04-08T03:35:08;98362.31;;;6.16;75.55
27712;BME280;2377;51.734;8.950;2023-04-08T03:37:36;98363.28;;;6.14;76.34
27712;BME280;2377;51.734;8.950;2023-04-08T03:40:05;98361.38;;;6.17;76.05
27712;BME280;2377;51.734;8.950;2023-04-08T03:42:32;98365.47;;;6.18;76.53
27712;BME280;2377;51.734;8.950;2023-04-08T03:44:59;98357.75;;;6.11;76.39
27712;BME280;2377;51.734;8.950;2023-04-08T03:47:26;98354.59;;;6.09;77.03
27712;BME280;2377;51.734;8.950;2023-04-08T03:49:54;98361.75;;;6.05;77.04
27712;BME280;2377;51.734;8.950;2023-04-08T03:52:21;98360.16;;;6.04;77.09
27712;BME280;2377;51.734;8.950;2023-04-08T03:54:49;98355.28;;;6.03;77.68
27712;BME280;2377;51.734;8.950;2023-04-08T03:57:16;98361.47;;;6.00;77.58
27712;BME280;2377;51.734;8.950;2023-04-08T03:59:43;98358.75;;;6.02;78.08
27712;BME280;2377;51.734;8.950;2023-04-08T04:02:10;98369.72;;;6.02;77.40
27712;BME280;2377;51.734;8.950;2023-04-08T04:04:37;98360.97;;;6.05;77.51
27712;BME280;2377;51.734;8.950;2023-04-08T04:07:05;98356.84;;;6.04;77.06
27712;BME280;2377;51.734;8.950;2023-04-08T04:09:32;98351.44;;;6.07;77.48
27712;BME280;2377;51.734;8.950;2023-04-08T04:12:00;98363.16;;;6.08;77.48
27712;BME280;2377;51.734;8.950;2023-04-08T04:14:27;98367.25;;;6.09;77.62
27712;BME280;2377;51.734;8.950;2023-04-08T04:16:54;98368.25;;;6.08;77.31
27712;BME280;2377;51.734;8.950;2023-04-08T04:19:21;98365.53;;;6.09;78.30
27712;BME280;2377;51.734;8.950;2023-04-08T04:21:48;98362.38;;;6.07;77.97
27712;BME280;2377;51.734;8.950;2023-04-08T04:24:16;98362.69;;;6.04;78.62
27712;BME280;2377;51.734;8.950;2023-04-08T04:26:43;98367.19;;;6.02;79.00
27712;BME280;2377;51.734;8.950;2023-04-08T04:29:11;98371.28;;;6.03;79.53
27712;BME280;2377;51.734;8.950;2023-04-08T04:31:38;98370.50;;;6.03;79.45
27712;BME280;2377;51.734;8.950;2023-04-08T04:34:05;98368.91;;;6.02;79.97
27712;BME280;2377;51.734;8.950;2023-04-08T04:36:32;98371.44;;;6.02;80.73
27712;BME280;2377;51.734;8.950;2023-04-08T04:39:00;98370.31;;;6.04;80.89
27712;BME280;2377;51.734;8.950;2023-04-08T04:41:27;98372.84;;;6.04;80.88
27712;BME280;2377;51.734;8.950;2023-04-08T04:43:54;98387.13;;;6.05;81.48
27712;BME280;2377;51.734;8.950;2023-04-08T04:46:22;98399.31;;;6.10;82.04
27712;BME280;2377;51.734;8.950;2023-04-08T04:48:49;98392.84;;;6.07;82.86
27712;BME280;2377;51.734;8.950;2023-04-08T04:51:17;98392.06;;;6.07;82.71
27712;BME280;2377;51.734;8.950;2023-04-08T04:53:44;98383.00;;;6.04;83.76
27712;BME280;2377;51.734;8.950;2023-04-08T04:56:11;98382.72;;;5.99;84.28
27712;BME280;2377;51.734;8.950;2023-04-08T04:58:38;98384.63;;;5.97;85.41
27712;BME280;2377;51.734;8.950;2023-04-08T05:01:05;98388.75;;;5.98;85.46
27712;BME280;2377;51.734;8.950;2023-04-08T05:03:33;98389.38;;;5.92;85.77
27712;BME280;2377;51.734;8.950;2023-04-08T05:06:01;98390.69;;;5.96;85.95
27712;BME280;2377;51.734;8.950;2023-04-08T05:08:28;98389.53;;;5.99;86.22
27712;BME280;2377;51.734;8.950;2023-04-08T05:10:55;98393.16;;;6.04;85.69
27712;BME280;2377;51.734;8.950;2023-04-08T05:13:24;98392.38;;;6.04;85.95
27712;BME280;2377;51.734;8.950;2023-04-08T05:15:51;98393.16;;;6.04;86.17
27712;BME280;2377;51.734;8.950;2023-04-08T05:18:19;98396.81;;;6.02;86.81
27712;BME280;2377;51.734;8.950;2023-04-08T05:20:47;98403.50;;;6.03;86.68
27712;BME280;2377;51.734;8.950;2023-04-08T05:23:14;98409.97;;;6.05;87.03
27712;BME280;2377;51.734;8.950;2023-04-08T05:25:41;98406.81;;;6.03;87.85
27712;BME280;2377;51.734;8.950;2023-04-08T05:28:08;98409.06;;;5.98;88.37
27712;BME280;2377;51.734;8.950;2023-04-08T05:30:35;98407.94;;;6.01;88.33
27712;BME280;2377;51.734;8.950;2023-04-08T05:33:03;98404.44;;;6.02;88.56
27712;BME280;2377;51.734;8.950;2023-04-08T05:35:30;98407.78;;;6.02;88.55
27712;BME280;2377;51.734;8.950;2023-04-08T05:37:58;98407.47;;;5.97;89.20
27712;BME280;2377;51.734;8.950;2023-04-08T05:40:26;98406.69;;;5.97;89.10
27712;BME280;2377;51.734;8.950;2023-04-08T05:42:52;98410.63;;;5.99;89.26
27712;BME280;2377;51.734;8.950;2023-04-08T05:45:19;98413.16;;;5.99;89.77
27712;BME280;2377;51.734;8.950;2023-04-08T05:47:47;98424.91;;;6.00;89.51
27712;BME280;2377;51.734;8.950;2023-04-08T05:50:14;98421.25;;;6.03;90.21
27712;BME280;2377;51.734;8.950;2023-04-08T05:52:42;98424.22;;;6.06;90.26
27712;BME280;2377;51.734;8.950;2023-04-08T05:55:12;98415.81;;;6.06;90.62
27712;BME280;2377;51.734;8.950;2023-04-08T05:57:40;98422.50;;;6.07;90.35
27712;BME280;2377;51.734;8.950;2023-04-08T06:00:09;98429.59;;;6.11;90.33
27712;BME280;2377;51.734;8.950;2023-04-08T06:02:37;98426.72;;;6.14;89.94
27712;BME280;2377;51.734;8.950;2023-04-08T06:05:05;98430.53;;;6.19;90.31
27712;BME280;2377;51.734;8.950;2023-04-08T06:07:33;98436.53;;;6.18;90.63
27712;BME280;2377;51.734;8.950;2023-04-08T06:10:00;98443.22;;;6.19;90.91
27712;BME280;2377;51.734;8.950;2023-04-08T06:12:28;98445.75;;;6.19;90.55
27712;BME280;2377;51.734;8.950;2023-04-08T06:14:56;98445.41;;;6.22;90.98
27712;BME280;2377;51.734;8.950;2023-04-08T06:17:23;98456.97;;;6.24;90.73
27712;BME280;2377;51.734;8.950;2023-04-08T06:19:51;98456.81;;;6.26;91.48
27712;BME280;2377;51.734;8.950;2023-04-08T06:22:18;98455.06;;;6.26;91.12
27712;BME280;2377;51.734;8.950;2023-04-08T06:24:46;98456.50;;;6.21;91.17
27712;BME280;2377;51.734;8.950;2023-04-08T06:27:14;98467.00;;;6.18;91.28
27712;BME280;2377;51.734;8.950;2023-04-08T06:29:42;98466.84;;;6.19;91.89
27712;BME280;2377;51.734;8.950;2023-04-08T06:32:09;98466.06;;;6.19;91.11
27712;BME280;2377;51.734;8.950;2023-04-08T06:34:37;98467.63;;;6.20;90.99
27712;BME280;2377;51.734;8.950;2023-04-08T06:37:04;98464.75;;;6.23;91.37
27712;BME280;2377;51.734;8.950;2023-04-08T06:39:32;98459.34;;;6.26;91.15
27712;BME280;2377;51.734;8.950;2023-04-08T06:41:59;98475.84;;;6.22;91.06
27712;BME280;2377;51.734;8.950;2023-04-08T06:44:26;98480.94;;;6.22;91.93
27712;BME280;2377;51.734;8.950;2023-04-08T06:46:54;98483.47;;;6.22;91.28
27712;BME280;2377;51.734;8.950;2023-04-08T06:49:21;98482.34;;;6.24;91.52
27712;BME280;2377;51.734;8.950;2023-04-08T06:51:49;98489.81;;;6.26;91.23
27712;BME280;2377;51.734;8.950;2023-04-08T06:54:16;98489.47;;;6.29;91.37
27712;BME280;2377;51.734;8.950;2023-04-08T06:56:43;98489.31;;;6.30;91.52
27712;BME280;2377;51.734;8.950;2023-04-08T06:59:11;98484.22;;;6.30;91.58
27712;BME280;2377;51.734;8.950;2023-04-08T07:01:38;98492.28;;;6.34;91.53
27712;BME280;2377;51.734;8.950;2023-04-08T07:04:07;98497.19;;;6.35;91.09
27712;BME280;2377;51.734;8.950;2023-04-08T07:06:34;98492.91;;;6.36;90.98
27712;BME280;2377;51.734;8.950;2023-04-08T07:09:01;98497.63;;;6.39;90.75
27712;BME280;2377;51.734;8.950;2023-04-08T07:11:29;98505.88;;;6.41;91.06
27712;BME280;2377;51.734;8.950;2023-04-08T07:13:56;98498.28;;;6.41;91.32
27712;BME280;2377;51.734;8.950;2023-04-08T07:16:23;98502.41;;;6.42;91.05
27712;BME280;2377;51.734;8.950;2023-04-08T07:18:50;98500.03;;;6.41;91.25
27712;BME280;2377;51.734;8.950;2023-04-08T07:21:18;98505.44;;;6.38;91.34
27712;BME280;2377;51.734;8.950;2023-04-08T07:23:45;98509.91;;;6.35;91.97
27712;BME280;2377;51.734;8.950;2023-04-08T07:26:12;98512.25;;;6.37;91.76
27712;BME280;2377;51.734;8.950;2023-04-08T07:28:39;98506.88;;;6.32;92.80
27712;BME280;2377;51.734;8.950;2023-04-08T07:31:11;98510.72;;;6.28;92.99
27712;BME280;2377;51.734;8.950;2023-04-08T07:33:39;98509.16;;;6.27;92.89
27712;BME280;2377;51.734;8.950;2023-04-08T07:36:07;98512.47;;;6.27;92.85
27712;BME280;2377;51.734;8.950;2023-04-08T07:38:36;98514.22;;;6.27;93.23
27712;BME280;2377;51.734;8.950;2023-04-08T07:41:03;98515.78;;;6.28;93.21
27712;BME280;2377;51.734;8.950;2023-04-08T07:43:30;98522.75;;;6.34;93.44
27712;BME280;2377;51.734;8.950;2023-04-08T07:46:02;98526.53;;;6.38;93.00
27712;BME280;2377;51.734;8.950;2023-04-08T07:48:30;98523.00;;;6.47;92.92
27712;BME280;2377;51.734;8.950;2023-04-08T07:50:57;98522.50;;;6.52;92.22
27712;BME280;2377;51.734;8.950;2023-04-08T07:53:24;98532.31;;;6.55;92.85
27712;BME280;2377;51.734;8.950;2023-04-08T07:55:53;98534.34;;;6.60;92.33
27712;BME280;2377;51.734;8.950;2023-04-08T07:58:20;98546.97;;;6.68;91.91
27712;BME280;2377;51.734;8.950;2023-04-08T08:00:47;98545.06;;;6.70;92.41
27712;BME280;2377;51.734;8.950;2023-04-08T08:03:14;98545.56;;;6.65;92.26
27712;BME280;2377;51.734;8.950;2023-04-08T08:05:41;98550.84;;;6.64;92.04
27712;BME280;2377;51.734;8.950;2023-04-08T08:08:09;98550.84;;;6.64;91.89
27712;BME280;2377;51.734;8.950;2023-04-08T08:10:37;98552.75;;;6.62;92.62
27712;BME280;2377;51.734;8.950;2023-04-08T08:13:06;98550.66;;;6.65;92.57
27712;BME280;2377;51.734;8.950;2023-04-08T08:15:36;98549.03;;;6.72;92.78
27712;BME280;2377;51.734;8.950;2023-04-08T08:18:03;98556.81;;;6.71;92.54
27712;BME280;2377;51.734;8.950;2023-04-08T08:20:30;98559.66;;;6.76;92.95
27712;BME280;2377;51.734;8.950;2023-04-08T08:22:57;98570.59;;;6.76;92.50
27712;BME280;2377;51.734;8.950;2023-04-08T08:25:24;98568.06;;;6.76;93.10
27712;BME280;2377;51.734;8.950;2023-04-08T08:27:51;98553.00;;;6.75;92.00
27712;BME280;2377;51.734;8.950;2023-04-08T08:30:19;98555.81;;;6.80;93.00
27712;BME280;2377;51.734;8.950;2023-04-08T08:32:46;98555.94;;;6.87;93.08
27712;BME280;2377;51.734;8.950;2023-04-08T08:35:14;98564.00;;;6.90;92.82
27712;BME280;2377;51.734;8.950;2023-04-08T08:37:41;98564.63;;;6.92;92.32
27712;BME280;2377;51.734;8.950;2023-04-08T08:40:09;98558.25;;;6.96;92.27
27712;BME280;2377;51.734;8.950;2023-04-08T08:42:38;98569.94;;;7.06;92.67
27712;BME280;2377;51.734;8.950;2023-04-08T08:45:06;98576.75;;;7.05;91.92
27712;BME280;2377;51.734;8.950;2023-04-08T08:47:34;98572.28;;;7.07;91.96
27712;BME280;2377;51.734;8.950;2023-04-08T08:50:02;98571.16;;;7.10;92.32
27712;BME280;2377;51.734;8.950;2023-04-08T08:52:29;98575.41;;;7.17;92.50
27712;BME280;2377;51.734;8.950;2023-04-08T08:54:58;98578.13;;;7.16;92.42
27712;BME280;2377;51.734;8.950;2023-04-08T08:57:26;98579.25;;;7.13;92.12
27712;BME280;2377;51.734;8.950;2023-04-08T08:59:52;98579.09;;;7.15;91.21
27712;BME280;2377;51.734;8.950;2023-04-08T09:02:24;98585.38;;;7.19;91.61
27712;BME280;2377;51.734;8.950;2023-04-08T09:04:59;98587.94;;;7.19;91.99
27712;BME280;2377;51.734;8.950;2023-04-08T09:07:28;98586.19;;;7.19;91.81
27712;BME280;2377;51.734;8.950;2023-04-08T09:09:58;98590.19;;;7.14;91.67
27712;BME280;2377;51.734;8.950;2023-04-08T09:12:26;98591.16;;;7.13;92.65
27712;BME280;2377;51.734;8.950;2023-04-08T09:15:03;98593.63;;;7.21;92.59
27712;BME280;2377;51.734;8.950;2023-04-08T09:17:33;98601.53;;;7.26;92.25
27712;BME280;2377;51.734;8.950;2023-04-08T09:20:07;98597.69;;;7.30;92.22
27712;BME280;2377;51.734;8.950;2023-04-08T09:22:55;98605.34;;;7.30;92.17
27712;BME280;2377;51.734;8.950;2023-04-08T09:25:23;98608.50;;;7.32;92.33
27712;BME280;2377;51.734;8.950;2023-04-08T09:27:51;98604.31;;;7.39;92.53
27712;BME280;2377;51.734;8.950;2023-04-08T09:30:21;98603.44;;;7.47;91.66
27712;BME280;2377;51.734;8.950;2023-04-08T09:32:49;98611.69;;;7.49;91.06
27712;BME280;2377;51.734;8.950;2023-04-08T09:35:19;98610.91;;;7.49;91.12
27712;BME280;2377;51.734;8.950;2023-04-08T09:37:48;98610.56;;;7.52;91.45
27712;BME280;2377;51.734;8.950;2023-04-08T09:40:16;98624.69;;;7.54;91.16
27712;BME280;2377;51.734;8.950;2023-04-08T09:42:47;98623.53;;;7.57;91.30
27712;BME280;2377;51.734;8.950;2023-04-08T09:45:17;98624.69;;;7.54;91.83
27712;BME280;2377;51.734;8.950;2023-04-08T09:47:56;98625.94;;;7.58;90.82
27712;BME280;2377;51.734;8.950;2023-04-08T09:50:31;98631.91;;;7.66;91.50
27712;BME280;2377;51.734;8.950;2023-04-08T09:53:09;98637.09;;;7.72;91.33
27712;BME280;2377;51.734;8.950;2023-04-08T09:55:42;98641.13;;;7.67;90.60
27712;BME280;2377;51.734;8.950;2023-04-08T09:58:15;98632.25;;;7.62;90.87
27712;BME280;2377;51.734;8.950;2023-04-08T10:00:48;98638.41;;;7.68;91.10
27712;BME280;2377;51.734;8.950;2023-04-08T10:03:26;98637.44;;;7.69;90.17
27712;BME280;2377;51.734;8.950;2023-04-08T10:06:00;98632.38;;;7.69;91.14
27712;BME280;2377;51.734;8.950;2023-04-08T10:08:29;98631.56;;;7.69;90.92
27712;BME280;2377;51.734;8.950;2023-04-08T10:10:57;98625.16;;;7.73;90.49
27712;BME280;2377;51.734;8.950;2023-04-08T10:13:26;98632.13;;;7.79;91.34
27712;BME280;2377;51.734;8.950;2023-04-08T10:16:20;98631.50;;;7.92;91.38
27712;BME280;2377;51.734;8.950;2023-04-08T10:18:49;98635.53;;;8.01;91.83
27712;BME280;2377;51.734;8.950;2023-04-08T10:21:37;98624.69;;;8.07;90.66
27712;BME280;2377;51.734;8.950;2023-04-08T10:24:08;98627.63;;;8.11;91.07
27712;BME280;2377;51.734;8.950;2023-04-08T10:26:39;98621.06;;;8.16;90.79
27712;BME280;2377;51.734;8.950;2023-04-08T10:29:34;98621.69;;;8.18;90.82
27712;BME280;2377;51.734;8.950;2023-04-08T10:32:01;98631.25;;;8.31;90.62
27712;BME280;2377;51.734;8.950;2023-04-08T10:34:29;98630.72;;;8.36;90.18
27712;BME280;2377;51.734;8.950;2023-04-08T10:36:57;98634.16;;;8.43;89.88
27712;BME280;2377;51.734;8.950;2023-04-08T10:39:29;98637.31;;;8.45;89.57
27712;BME280;2377;51.734;8.950;2023-04-08T10:41:56;98629.06;;;8.43;89.20
27712;BME280;2377;51.734;8.950;2023-04-08T10:44:24;98633.81;;;8.46;89.25
27712;BME280;2377;51.734;8.950;2023-04-08T10:46:53;98628.72;;;8.46;89.00
27712;BME280;2377;51.734;8.950;2023-04-08T10:49:20;98635.72;;;8.44;88.07
27712;BME280;2377;51.734;8.950;2023-04-08T10:51:47;98634.94;;;8.43;88.46
27712;BME280;2377;51.734;8.950;2023-04-08T10:54:17;98642.59;;;8.43;88.94
27712;BME280;2377;51.734;8.950;2023-04-08T10:56:46;98639.25;;;8.43;88.49
27712;BME280;2377;51.734;8.950;2023-04-08T10:59:17;98641.28;;;8.48;88.46
27712;BME280;2377;51.734;8.950;2023-04-08T11:01:45;98635.41;;;8.47;88.93
27712;BME280;2377;51.734;8.950;2023-04-08T11:04:13;98639.25;;;8.43;88.46
27712;BME280;2377;51.734;8.950;2023-04-08T11:06:42;98636.75;;;8.35;88.79
27712;BME280;2377;51.734;8.950;2023-04-08T11:09:10;98640.28;;;8.34;88.90
27712;BME280;2377;51.734;8.950;2023-04-08T11:11:41;98648.19;;;8.39;88.81
27712;BME280;2377;51.734;8.950;2023-04-08T11:14:08;98649.44;;;8.43;89.29
27712;BME280;2377;51.734;8.950;2023-04-08T11:16:37;98653.22;;;8.47;89.19
27712;BME280;2377;51.734;8.950;2023-04-08T11:19:05;98641.91;;;8.50;89.03
27712;BME280;2377;51.734;8.950;2023-04-08T11:21:35;98648.13;;;8.47;88.92
27712;BME280;2377;51.734;8.950;2023-04-08T11:24:09;98644.34;;;8.43;88.91
27712;BME280;2377;51.734;8.950;2023-04-08T11:26:41;98646.13;;;8.42;88.58
27712;BME280;2377;51.734;8.950;2023-04-08T11:29:12;98644.59;;;8.33;89.32
27712;BME280;2377;51.734;8.950;2023-04-08T11:31:42;98648.63;;;8.27;90.19
27712;BME280;2377;51.734;8.950;2023-04-08T11:34:10;98647.69;;;8.29;89.56
27712;BME280;2377;51.734;8.950;2023-04-08T11:36:39;98650.38;;;8.27;90.94
27712;BME280;2377;51.734;8.950;2023-04-08T11:39:09;98650.47;;;8.34;90.01
27712;BME280;2377;51.734;8.950;2023-04-08T11:41:39;98647.56;;;8.37;89.60
27712;BME280;2377;51.734;8.950;2023-04-08T11:44:06;98654.91;;;8.40;89.80
27712;BME280;2377;51.734;8.950;2023-04-08T11:46:35;98650.13;;;8.37;88.86
27712;BME280;2377;51.734;8.950;2023-04-08T11:49:05;98650.13;;;8.37;89.96
27712;BME280;2377;51.734;8.950;2023-04-08T11:54:43;98656.13;;;8.44;90.65
27712;BME280;2377;51.734;8.950;2023-04-08T11:57:12;98656.56;;;8.48;89.84
27712;BME280;2377;51.734;8.950;2023-04-08T11:59:40;98663.50;;;8.54;89.69
27712;BME280;2377;51.734;8.950;2023-04-08T12:02:48;98664.09;;;8.56;90.06
27712;BME280;2377;51.734;8.950;2023-04-08T12:05:50;98667.25;;;8.58;89.74
27712;BME280;2377;51.734;8.950;2023-04-08T12:12:47;98653.75;;;8.42;89.43
27712;BME280;2377;51.734;8.950;2023-04-08T12:15:23;98658.38;;;8.39;89.91
27712;BME280;2377;51.734;8.950;2023-04-08T12:17:52;98654.06;;;8.39;90.56
27712;BME280;2377;51.734;8.950;2023-04-08T12:20:24;98653.94;;;8.41;91.20
27712;BME280;2377;51.734;8.950;2023-04-08T12:22:51;98659.63;;;8.43;90.59
27712;BME280;2377;51.734;8.950;2023-04-08T12:25:18;98660.63;;;8.42;90.29
27712;BME280;2377;51.734;8.950;2023-04-08T12:27:47;98664.13;;;8.41;90.03
27712;BME280;2377;51.734;8.950;2023-04-08T12:30:14;98662.81;;;8.45;90.46
27712;BME280;2377;51.734;8.950;2023-04-08T12:32:41;98662.06;;;8.51;90.77
27712;BME280;2377;51.734;8.950;2023-04-08T12:35:10;98666.22;;;8.52;90.78
27712;BME280;2377;51.734;8.950;2023-04-08T12:37:37;98668.84;;;8.59;91.16
27712;BME280;2377;51.734;8.950;2023-04-08T12:40:05;98654.97;;;8.61;90.28
27712;BME280;2377;51.734;8.950;2023-04-08T12:42:32;98659.44;;;8.59;90.29
27712;BME280;2377;51.734;8.950;2023-04-08T12:45:01;98658.31;;;8.62;90.66
27712;BME280;2377;51.734;8.950;2023-04-08T12:47:28;98661.28;;;8.65;90.75
27712;BME280;2377;51.734;8.950;2023-04-08T12:49:55;98666.28;;;8.74;90.57
27712;BME280;2377;51.734;8.950;2023-04-08T12:52:22;98667.16;;;8.81;90.25
27712;BME280;2377;51.734;8.950;2023-04-08T12:54:49;98668.66;;;8.75;90.64
27712;BME280;2377;51.734;8.950;2023-04-08T12:57:16;98669.44;;;8.76;90.21
27712;BME280;2377;51.734;8.950;2023-04-08T12:59:43;98666.91;;;8.76;90.11
27712;BME280;2377;51.734;8.950;2023-04-08T13:02:12;98664.41;;;8.82;90.39
27712;BME280;2377;51.734;8.950;2023-04-08T13:04:39;98669.94;;;8.86;90.37
27712;BME280;2377;51.734;8.950;2023-04-08T13:07:05;98662.13;;;8.87;90.64
27712;BME280;2377;51.734;8.950;2023-04-08T13:09:35;98658.78;;;8.87;89.78
27712;BME280;2377;51.734;8.950;2023-04-08T13:12:02;98664.66;;;8.87;89.68
27712;BME280;2377;51.734;8.950;2023-04-08T13:14:29;98649.19;;;8.89;90.53
27712;BME280;2377;51.734;8.950;2023-04-08T13:16:56;98655.75;;;8.98;91.07
27712;BME280;2377;51.734;8.950;2023-04-08T13:19:24;98655.72;;;9.13;91.23
27712;BME280;2377;51.734;8.950;2023-04-08T13:21:51;98653.78;;;9.15;89.68
27712;BME280;2377;51.734;8.950;2023-04-08T13:24:18;98657.59;;;9.04;89.85
27712;BME280;2377;51.734;8.950;2023-04-08T13:26:45;98657.16;;;9.01;89.99
27712;BME280;2377;51.734;8.950;2023-04-08T13:29:12;98652.84;;;9.01;89.66
27712;BME280;2377;51.734;8.950;2023-04-08T13:31:39;98652.41;;;8.98;90.53
27712;BME280;2377;51.734;8.950;2023-04-08T13:34:06;98654.41;;;9.02;89.80
27712;BME280;2377;51.734;8.950;2023-04-08T13:36:34;98655.16;;;8.96;90.31
27712;BME280;2377;51.734;8.950;2023-04-08T13:39:01;98648.09;;;8.98;90.27